sensor_id;sensor_type;location;lat;lon;timestamp;P1;durP1;ratioP1;P2;durP2;ratioP2
24044;SDS011;26257;49.442;8.422;2022-12-20T00:01:07;32.22;;;16.92;;
24044;SDS011;26257;49.442;8.422;2022-12-20T00:03:34;33.40;;;17.40;;
24044;SDS011;26257;49.442;8.422;2022-12-20T00:05:59;32.22;;;16.65;;
24044;SDS011;26257;49.442;8.422;2022-12-20T00:08:24;29.58;;;16.55;;
24044;SDS011;26257;49.442;8.422;2022-12-20T00:10:50;30.30;;;16.83;;
24044;SDS011;26257;49.442;8.422;2022-12-20T00:13:15;32.08;;;16.83;;
24044;SDS011;26257;49.442;8.422;2022-12-20T00:15:41;32.40;;;16.30;;
24044;SDS011;26257;49.442;8.422;2022-12-20T00:18:06;30.55;;;17.25;;
24044;SDS011;26257;49.442;8.422;2022-12-20T00:20:31;37.58;;;17.92;;
24044;SDS011;26257;49.442;8.422;2022-12-20T00:22:57;32.35;;;16.70;;
24044;SDS011;26257;49.442;8.422;2022-12-20T00:25:23;33.05;;;17.30;;
24044;SDS011;26257;49.442;8.422;2022-12-20T00:27:49;31.23;;;15.63;;
24044;SDS011;26257;49.442;8.422;2022-12-20T00:30:15;30.08;;;15.15;;
24044;SDS011;26257;49.442;8.422;2022-12-20T00:32:42;27.30;;;15.60;;
24044;SDS011;26257;49.442;8.422;2022-12-20T00:35:08;25.95;;;14.93;;
24044;SDS011;26257;49.442;8.422;2022-12-20T00:37:34;33.45;;;15.68;;
24044;SDS011;26257;49.442;8.422;2022-12-20T00:40:00;26.08;;;15.13;;
24044;SDS011;26257;49.442;8.422;2022-12-20T00:42:25;26.88;;;14.93;;
24044;SDS011;26257;49.442;8.422;2022-12-20T00:44:51;29.98;;;15.65;;
24044;SDS011;26257;49.442;8.422;2022-12-20T00:47:17;26.08;;;14.70;;
24044;SDS011;26257;49.442;8.422;2022-12-20T00:49:43;27.33;;;14.85;;
24044;SDS011;26257;49.442;8.422;2022-12-20T00:52:08;29.38;;;15.57;;
24044;SDS011;26257;49.442;8.422;2022-12-20T00:54:34;27.20;;;14.48;;
24044;SDS011;26257;49.442;8.422;2022-12-20T00:57:00;28.00;;;16.10;;
24044;SDS011;26257;49.442;8.422;2022-12-20T00:59:25;27.20;;;15.07;;
24044;SDS011;26257;49.442;8.422;2022-12-20T01:01:52;24.83;;;13.82;;
24044;SDS011;26257;49.442;8.422;2022-12-20T01:04:17;31.63;;;15.40;;
24044;SDS011;26257;49.442;8.422;2022-12-20T01:06:43;26.13;;;14.80;;
24044;SDS011;26257;49.442;8.422;2022-12-20T01:09:09;27.67;;;14.70;;
24044;SDS011;26257;49.442;8.422;2022-12-20T01:11:35;29.38;;;15.23;;
24044;SDS011;26257;49.442;8.422;2022-12-20T01:14:04;25.50;;;16.10;;
24044;SDS011;26257;49.442;8.422;2022-12-20T01:16:50;25.20;;;15.20;;
24044;SDS011;26257;49.442;8.422;2022-12-20T01:19:16;25.25;;;14.10;;
24044;SDS011;26257;49.442;8.422;2022-12-20T01:21:42;30.52;;;16.33;;
24044;SDS011;26257;49.442;8.422;2022-12-20T01:24:14;31.27;;;15.45;;
24044;SDS011;26257;49.442;8.422;2022-12-20T01:26:42;29.10;;;14.88;;
24044;SDS011;26257;49.442;8.422;2022-12-20T01:29:08;29.77;;;15.77;;
24044;SDS011;26257;49.442;8.422;2022-12-20T01:31:34;27.50;;;15.27;;
24044;SDS011;26257;49.442;8.422;2022-12-20T01:33:59;26.38;;;14.82;;
24044;SDS011;26257;49.442;8.422;2022-12-20T01:36:27;28.52;;;16.10;;
24044;SDS011;26257;49.442;8.422;2022-12-20T01:39:01;31.88;;;14.20;;
24044;SDS011;26257;49.442;8.422;2022-12-20T01:41:30;24.33;;;14.63;;
24044;SDS011;26257;49.442;8.422;2022-12-20T01:43:57;30.08;;;16.00;;
24044;SDS011;26257;49.442;8.422;2022-12-20T01:46:29;28.80;;;14.95;;
24044;SDS011;26257;49.442;8.422;2022-12-20T01:51:29;30.77;;;16.15;;
24044;SDS011;26257;49.442;8.422;2022-12-20T01:54:00;27.98;;;13.95;;
24044;SDS011;26257;49.442;8.422;2022-12-20T01:56:31;26.95;;;14.52;;
24044;SDS011;26257;49.442;8.422;2022-12-20T01:58:57;27.42;;;14.60;;
24044;SDS011;26257;49.442;8.422;2022-12-20T02:01:23;28.38;;;14.23;;
24044;SDS011;26257;49.442;8.422;2022-12-20T02:03:50;24.50;;;14.35;;
24044;SDS011;26257;49.442;8.422;2022-12-20T02:06:17;25.77;;;14.40;;
24044;SDS011;26257;49.442;8.422;2022-12-20T02:08:45;25.02;;;14.05;;
24044;SDS011;26257;49.442;8.422;2022-12-20T02:11:23;25.95;;;14.10;;
24044;SDS011;26257;49.442;8.422;2022-12-20T02:16:47;23.65;;;13.60;;
24044;SDS011;26257;49.442;8.422;2022-12-20T02:22:30;24.73;;;13.52;;
24044;SDS011;26257;49.442;8.422;2022-12-20T02:25:08;26.80;;;14.50;;
24044;SDS011;26257;49.442;8.422;2022-12-20T02:30:34;23.42;;;14.10;;
24044;SDS011;26257;49.442;8.422;2022-12-20T02:33:14;25.95;;;13.45;;
24044;SDS011;26257;49.442;8.422;2022-12-20T02:35:42;26.40;;;14.23;;
24044;SDS011;26257;49.442;8.422;2022-12-20T02:38:25;24.50;;;12.88;;
24044;SDS011;26257;49.442;8.422;2022-12-20T02:41:13;22.27;;;12.68;;
24044;SDS011;26257;49.442;8.422;2022-12-20T02:43:41;24.60;;;14.10;;
24044;SDS011;26257;49.442;8.422;2022-12-20T02:46:28;21.63;;;12.70;;
24044;SDS011;26257;49.442;8.422;2022-12-20T03:09:04;26.05;;;14.15;;
24044;SDS011;26257;49.442;8.422;2022-12-20T03:11:29;24.48;;;13.90;;
24044;SDS011;26257;49.442;8.422;2022-12-20T03:13:55;28.00;;;14.40;;
24044;SDS011;26257;49.442;8.422;2022-12-20T03:16:21;25.33;;;13.80;;
24044;SDS011;26257;49.442;8.422;2022-12-20T03:18:46;27.55;;;15.35;;
24044;SDS011;26257;49.442;8.422;2022-12-20T03:21:12;25.17;;;14.35;;
24044;SDS011;26257;49.442;8.422;2022-12-20T03:23:38;27.38;;;14.82;;
24044;SDS011;26257;49.442;8.422;2022-12-20T03:26:03;26.05;;;14.50;;
24044;SDS011;26257;49.442;8.422;2022-12-20T03:28:29;26.83;;;15.02;;
24044;SDS011;26257;49.442;8.422;2022-12-20T03:30:54;27.30;;;14.45;;
24044;SDS011;26257;49.442;8.422;2022-12-20T03:33:19;26.33;;;15.38;;
24044;SDS011;26257;49.442;8.422;2022-12-20T03:35:45;25.58;;;14.05;;
24044;SDS011;26257;49.442;8.422;2022-12-20T03:38:11;26.02;;;14.35;;
24044;SDS011;26257;49.442;8.422;2022-12-20T03:40:37;27.98;;;14.40;;
24044;SDS011;26257;49.442;8.422;2022-12-20T03:43:02;28.08;;;15.40;;
24044;SDS011;26257;49.442;8.422;2022-12-20T03:45:28;25.02;;;14.80;;
24044;SDS011;26257;49.442;8.422;2022-12-20T03:47:54;27.98;;;14.32;;
24044;SDS011;26257;49.442;8.422;2022-12-20T03:50:20;24.50;;;13.60;;
24044;SDS011;26257;49.442;8.422;2022-12-20T03:52:45;26.98;;;14.57;;
24044;SDS011;26257;49.442;8.422;2022-12-20T03:55:10;26.00;;;14.38;;
24044;SDS011;26257;49.442;8.422;2022-12-20T03:57:37;26.67;;;14.23;;
24044;SDS011;26257;49.442;8.422;2022-12-20T04:00:02;31.25;;;18.83;;
24044;SDS011;26257;49.442;8.422;2022-12-20T04:02:28;42.40;;;24.30;;
24044;SDS011;26257;49.442;8.422;2022-12-20T04:04:53;25.85;;;13.65;;
24044;SDS011;26257;49.442;8.422;2022-12-20T04:07:19;24.40;;;13.88;;
24044;SDS011;26257;49.442;8.422;2022-12-20T04:09:44;26.08;;;14.80;;
24044;SDS011;26257;49.442;8.422;2022-12-20T04:12:10;24.50;;;13.32;;
24044;SDS011;26257;49.442;8.422;2022-12-20T04:14:35;26.73;;;13.95;;
24044;SDS011;26257;49.442;8.422;2022-12-20T04:17:01;23.88;;;12.98;;
24044;SDS011;26257;49.442;8.422;2022-12-20T04:19:27;23.65;;;13.75;;
24044;SDS011;26257;49.442;8.422;2022-12-20T04:21:52;24.40;;;13.32;;
24044;SDS011;26257;49.442;8.422;2022-12-20T04:24:20;22.60;;;13.95;;
24044;SDS011;26257;49.442;8.422;2022-12-20T04:26:45;27.38;;;14.23;;
24044;SDS011;26257;49.442;8.422;2022-12-20T04:29:11;26.13;;;13.57;;
24044;SDS011;26257;49.442;8.422;2022-12-20T04:31:36;23.40;;;13.27;;
24044;SDS011;26257;49.442;8.422;2022-12-20T04:34:02;23.23;;;13.63;;
24044;SDS011;26257;49.442;8.422;2022-12-20T04:36:27;24.77;;;13.75;;
24044;SDS011;26257;49.442;8.422;2022-12-20T04:38:53;27.13;;;14.57;;
24044;SDS011;26257;49.442;8.422;2022-12-20T04:41:19;23.25;;;13.23;;
24044;SDS011;26257;49.442;8.422;2022-12-20T04:43:51;22.77;;;13.13;;
24044;SDS011;26257;49.442;8.422;2022-12-20T04:46:18;23.33;;;13.02;;
24044;SDS011;26257;49.442;8.422;2022-12-20T04:48:43;28.20;;;14.40;;
24044;SDS011;26257;49.442;8.422;2022-12-20T04:51:09;25.65;;;14.02;;
24044;SDS011;26257;49.442;8.422;2022-12-20T04:53:34;22.48;;;12.82;;
24044;SDS011;26257;49.442;8.422;2022-12-20T04:56:15;21.73;;;12.23;;
24044;SDS011;26257;49.442;8.422;2022-12-20T04:58:44;22.05;;;13.80;;
24044;SDS011;26257;49.442;8.422;2022-12-20T05:01:10;23.30;;;13.45;;
24044;SDS011;26257;49.442;8.422;2022-12-20T05:03:36;22.40;;;12.77;;
24044;SDS011;26257;49.442;8.422;2022-12-20T05:06:02;24.23;;;14.07;;
24044;SDS011;26257;49.442;8.422;2022-12-20T05:08:28;21.15;;;12.48;;
24044;SDS011;26257;49.442;8.422;2022-12-20T05:10:53;24.88;;;13.25;;
24044;SDS011;26257;49.442;8.422;2022-12-20T05:13:19;23.77;;;13.60;;
24044;SDS011;26257;49.442;8.422;2022-12-20T05:15:44;25.17;;;14.18;;
24044;SDS011;26257;49.442;8.422;2022-12-20T05:18:10;22.73;;;12.82;;
24044;SDS011;26257;49.442;8.422;2022-12-20T05:20:35;20.08;;;12.77;;
24044;SDS011;26257;49.442;8.422;2022-12-20T05:23:00;18.08;;;11.35;;
24044;SDS011;26257;49.442;8.422;2022-12-20T05:25:45;28.05;;;13.93;;
24044;SDS011;26257;49.442;8.422;2022-12-20T05:28:28;24.08;;;12.98;;
24044;SDS011;26257;49.442;8.422;2022-12-20T05:30:54;21.10;;;12.23;;
24044;SDS011;26257;49.442;8.422;2022-12-20T05:33:19;22.02;;;12.93;;
24044;SDS011;26257;49.442;8.422;2022-12-20T05:35:45;19.60;;;12.57;;
24044;SDS011;26257;49.442;8.422;2022-12-20T05:38:10;22.27;;;12.43;;
24044;SDS011;26257;49.442;8.422;2022-12-20T05:40:35;22.25;;;12.43;;
24044;SDS011;26257;49.442;8.422;2022-12-20T05:43:02;22.00;;;12.15;;
24044;SDS011;26257;49.442;8.422;2022-12-20T05:45:27;23.30;;;12.00;;
24044;SDS011;26257;49.442;8.422;2022-12-20T05:47:53;21.52;;;11.65;;
24044;SDS011;26257;49.442;8.422;2022-12-20T05:50:18;23.38;;;12.40;;
24044;SDS011;26257;49.442;8.422;2022-12-20T05:52:43;19.33;;;10.70;;
24044;SDS011;26257;49.442;8.422;2022-12-20T05:55:09;16.95;;;10.10;;
24044;SDS011;26257;49.442;8.422;2022-12-20T05:57:34;19.02;;;11.15;;
24044;SDS011;26257;49.442;8.422;2022-12-20T06:00:00;24.13;;;11.68;;
24044;SDS011;26257;49.442;8.422;2022-12-20T06:02:26;18.83;;;10.65;;
24044;SDS011;26257;49.442;8.422;2022-12-20T06:04:52;21.25;;;11.57;;
24044;SDS011;26257;49.442;8.422;2022-12-20T06:07:17;22.55;;;11.60;;
24044;SDS011;26257;49.442;8.422;2022-12-20T06:09:43;16.55;;;11.10;;
24044;SDS011;26257;49.442;8.422;2022-12-20T06:12:09;22.38;;;10.90;;
24044;SDS011;26257;49.442;8.422;2022-12-20T06:14:34;19.88;;;11.23;;
24044;SDS011;26257;49.442;8.422;2022-12-20T06:17:00;17.88;;;10.88;;
24044;SDS011;26257;49.442;8.422;2022-12-20T06:19:26;22.30;;;12.35;;
24044;SDS011;26257;49.442;8.422;2022-12-20T06:21:51;18.63;;;11.15;;
24044;SDS011;26257;49.442;8.422;2022-12-20T06:24:16;17.42;;;9.82;;
24044;SDS011;26257;49.442;8.422;2022-12-20T06:26:42;21.17;;;11.45;;
24044;SDS011;26257;49.442;8.422;2022-12-20T06:29:08;16.73;;;11.25;;
24044;SDS011;26257;49.442;8.422;2022-12-20T06:31:38;20.98;;;10.45;;
24044;SDS011;26257;49.442;8.422;2022-12-20T06:34:04;18.88;;;11.10;;
24044;SDS011;26257;49.442;8.422;2022-12-20T06:36:29;17.92;;;10.45;;
24044;SDS011;26257;49.442;8.422;2022-12-20T06:38:55;19.52;;;10.40;;
24044;SDS011;26257;49.442;8.422;2022-12-20T06:41:20;20.20;;;11.18;;
24044;SDS011;26257;49.442;8.422;2022-12-20T06:43:45;18.88;;;11.00;;
24044;SDS011;26257;49.442;8.422;2022-12-20T06:46:11;18.40;;;10.88;;
24044;SDS011;26257;49.442;8.422;2022-12-20T06:48:36;19.10;;;10.13;;
24044;SDS011;26257;49.442;8.422;2022-12-20T06:51:02;22.00;;;11.50;;
24044;SDS011;26257;49.442;8.422;2022-12-20T06:53:27;20.13;;;11.05;;
24044;SDS011;26257;49.442;8.422;2022-12-20T06:55:53;21.35;;;11.88;;
24044;SDS011;26257;49.442;8.422;2022-12-20T06:58:18;18.95;;;10.88;;
24044;SDS011;26257;49.442;8.422;2022-12-20T07:00:44;18.00;;;9.80;;
24044;SDS011;26257;49.442;8.422;2022-12-20T07:03:10;16.73;;;10.50;;
24044;SDS011;26257;49.442;8.422;2022-12-20T07:05:36;16.98;;;10.63;;
24044;SDS011;26257;49.442;8.422;2022-12-20T07:08:01;19.52;;;10.15;;
24044;SDS011;26257;49.442;8.422;2022-12-20T07:10:28;17.25;;;9.63;;
24044;SDS011;26257;49.442;8.422;2022-12-20T07:12:54;17.55;;;10.98;;
24044;SDS011;26257;49.442;8.422;2022-12-20T07:15:20;17.30;;;10.00;;
24044;SDS011;26257;49.442;8.422;2022-12-20T07:17:46;18.35;;;9.65;;
24044;SDS011;26257;49.442;8.422;2022-12-20T07:20:11;18.40;;;10.75;;
24044;SDS011;26257;49.442;8.422;2022-12-20T07:22:37;16.55;;;10.35;;
24044;SDS011;26257;49.442;8.422;2022-12-20T07:25:02;17.95;;;10.95;;
24044;SDS011;26257;49.442;8.422;2022-12-20T07:27:28;20.00;;;11.70;;
24044;SDS011;26257;49.442;8.422;2022-12-20T07:29:53;21.30;;;12.50;;
24044;SDS011;26257;49.442;8.422;2022-12-20T07:32:19;18.35;;;11.05;;
24044;SDS011;26257;49.442;8.422;2022-12-20T07:34:44;20.35;;;11.38;;
24044;SDS011;26257;49.442;8.422;2022-12-20T07:37:10;18.20;;;10.55;;
24044;SDS011;26257;49.442;8.422;2022-12-20T07:39:35;20.00;;;11.70;;
24044;SDS011;26257;49.442;8.422;2022-12-20T07:42:00;20.42;;;11.60;;
24044;SDS011;26257;49.442;8.422;2022-12-20T07:44:26;21.42;;;10.63;;
24044;SDS011;26257;49.442;8.422;2022-12-20T07:46:51;17.77;;;10.43;;
24044;SDS011;26257;49.442;8.422;2022-12-20T07:49:17;17.92;;;10.43;;
24044;SDS011;26257;49.442;8.422;2022-12-20T07:51:44;16.77;;;9.65;;
24044;SDS011;26257;49.442;8.422;2022-12-20T07:54:16;22.15;;;11.35;;
24044;SDS011;26257;49.442;8.422;2022-12-20T07:56:46;21.17;;;11.95;;
24044;SDS011;26257;49.442;8.422;2022-12-20T07:59:15;20.05;;;11.48;;
24044;SDS011;26257;49.442;8.422;2022-12-20T08:01:46;19.30;;;11.88;;
24044;SDS011;26257;49.442;8.422;2022-12-20T08:04:17;21.55;;;11.90;;
24044;SDS011;26257;49.442;8.422;2022-12-20T08:06:45;22.38;;;11.55;;
24044;SDS011;26257;49.442;8.422;2022-12-20T08:09:12;36.88;;;19.95;;
24044;SDS011;26257;49.442;8.422;2022-12-20T08:11:39;20.38;;;11.40;;
24044;SDS011;26257;49.442;8.422;2022-12-20T08:14:07;20.17;;;10.75;;
24044;SDS011;26257;49.442;8.422;2022-12-20T08:16:34;16.38;;;9.98;;
24044;SDS011;26257;49.442;8.422;2022-12-20T08:18:59;16.67;;;10.63;;
24044;SDS011;26257;49.442;8.422;2022-12-20T08:21:25;20.55;;;10.75;;
24044;SDS011;26257;49.442;8.422;2022-12-20T08:23:51;19.23;;;11.55;;
24044;SDS011;26257;49.442;8.422;2022-12-20T08:26:16;22.63;;;10.80;;
24044;SDS011;26257;49.442;8.422;2022-12-20T08:28:42;19.38;;;10.30;;
24044;SDS011;26257;49.442;8.422;2022-12-20T08:31:08;20.02;;;11.05;;
24044;SDS011;26257;49.442;8.422;2022-12-20T08:33:35;41.65;;;23.98;;
24044;SDS011;26257;49.442;8.422;2022-12-20T08:36:02;33.78;;;19.50;;
24044;SDS011;26257;49.442;8.422;2022-12-20T08:38:30;34.78;;;20.92;;
24044;SDS011;26257;49.442;8.422;2022-12-20T08:41:02;17.90;;;11.32;;
24044;SDS011;26257;49.442;8.422;2022-12-20T08:43:38;18.52;;;11.23;;
24044;SDS011;26257;49.442;8.422;2022-12-20T08:46:05;38.67;;;24.20;;
24044;SDS011;26257;49.442;8.422;2022-12-20T08:48:31;23.38;;;13.70;;
24044;SDS011;26257;49.442;8.422;2022-12-20T09:08:50;16.05;;;9.30;;
24044;SDS011;26257;49.442;8.422;2022-12-20T09:11:18;16.85;;;10.15;;
24044;SDS011;26257;49.442;8.422;2022-12-20T09:13:46;18.55;;;10.10;;
24044;SDS011;26257;49.442;8.422;2022-12-20T09:16:14;15.15;;;9.15;;
24044;SDS011;26257;49.442;8.422;2022-12-20T09:18:46;17.80;;;9.55;;
24044;SDS011;26257;49.442;8.422;2022-12-20T09:21:17;18.25;;;9.27;;
24044;SDS011;26257;49.442;8.422;2022-12-20T09:23:43;19.48;;;9.35;;
24044;SDS011;26257;49.442;8.422;2022-12-20T09:26:13;43.30;;;26.25;;
24044;SDS011;26257;49.442;8.422;2022-12-20T09:28:40;15.27;;;9.30;;
24044;SDS011;26257;49.442;8.422;2022-12-20T09:31:07;17.02;;;8.98;;
24044;SDS011;26257;49.442;8.422;2022-12-20T09:33:35;17.17;;;8.88;;
24044;SDS011;26257;49.442;8.422;2022-12-20T09:36:01;15.63;;;8.68;;
24044;SDS011;26257;49.442;8.422;2022-12-20T09:41:03;12.73;;;7.93;;
24044;SDS011;26257;49.442;8.422;2022-12-20T09:43:31;14.10;;;9.05;;
24044;SDS011;26257;49.442;8.422;2022-12-20T09:45:59;15.40;;;9.32;;
24044;SDS011;26257;49.442;8.422;2022-12-20T09:48:32;15.07;;;9.18;;
24044;SDS011;26257;49.442;8.422;2022-12-20T09:56:29;14.90;;;8.27;;
24044;SDS011;26257;49.442;8.422;2022-12-20T09:59:01;16.13;;;8.30;;
24044;SDS011;26257;49.442;8.422;2022-12-20T10:01:31;17.70;;;7.93;;
24044;SDS011;26257;49.442;8.422;2022-12-20T10:04:00;16.98;;;8.95;;
24044;SDS011;26257;49.442;8.422;2022-12-20T10:09:12;16.23;;;8.90;;
24044;SDS011;26257;49.442;8.422;2022-12-20T10:20:16;14.93;;;8.02;;
24044;SDS011;26257;49.442;8.422;2022-12-20T10:22:52;14.15;;;7.90;;
24044;SDS011;26257;49.442;8.422;2022-12-20T10:25:23;15.30;;;9.05;;
24044;SDS011;26257;49.442;8.422;2022-12-20T10:27:55;14.77;;;8.45;;
24044;SDS011;26257;49.442;8.422;2022-12-20T10:30:22;51.47;;;28.15;;
24044;SDS011;26257;49.442;8.422;2022-12-20T10:32:50;17.77;;;11.57;;
24044;SDS011;26257;49.442;8.422;2022-12-20T10:35:28;15.40;;;8.48;;
24044;SDS011;26257;49.442;8.422;2022-12-20T10:38:06;13.90;;;8.73;;
24044;SDS011;26257;49.442;8.422;2022-12-20T10:46:08;14.77;;;8.07;;
24044;SDS011;26257;49.442;8.422;2022-12-20T10:56:32;15.35;;;8.52;;
24044;SDS011;26257;49.442;8.422;2022-12-20T11:05:02;14.35;;;8.57;;
24044;SDS011;26257;49.442;8.422;2022-12-20T11:11:22;18.40;;;10.63;;
24044;SDS011;26257;49.442;8.422;2022-12-20T11:17:45;16.25;;;8.43;;
24044;SDS011;26257;49.442;8.422;2022-12-20T12:06:35;17.27;;;9.13;;
24044;SDS011;26257;49.442;8.422;2022-12-20T12:09:23;16.35;;;8.25;;
24044;SDS011;26257;49.442;8.422;2022-12-20T12:12:03;12.02;;;8.00;;
24044;SDS011;26257;49.442;8.422;2022-12-20T12:18:21;13.93;;;8.57;;
24044;SDS011;26257;49.442;8.422;2022-12-20T12:23:43;12.80;;;7.78;;
24044;SDS011;26257;49.442;8.422;2022-12-20T12:26:14;16.98;;;9.35;;
24044;SDS011;26257;49.442;8.422;2022-12-20T12:28:53;14.48;;;8.80;;
24044;SDS011;26257;49.442;8.422;2022-12-20T12:31:35;16.75;;;10.15;;
24044;SDS011;26257;49.442;8.422;2022-12-20T12:46:44;20.73;;;10.43;;
24044;SDS011;26257;49.442;8.422;2022-12-20T12:49:17;18.92;;;10.05;;
24044;SDS011;26257;49.442;8.422;2022-12-20T12:51:51;16.27;;;9.63;;
24044;SDS011;26257;49.442;8.422;2022-12-20T12:57:06;15.93;;;9.52;;
24044;SDS011;26257;49.442;8.422;2022-12-20T13:17:59;11.38;;;7.88;;
24044;SDS011;26257;49.442;8.422;2022-12-20T13:20:29;17.48;;;9.68;;
24044;SDS011;26257;49.442;8.422;2022-12-20T13:25:32;15.48;;;9.45;;
24044;SDS011;26257;49.442;8.422;2022-12-20T13:30:47;17.00;;;8.68;;
24044;SDS011;26257;49.442;8.422;2022-12-20T13:36:04;14.90;;;8.35;;
24044;SDS011;26257;49.442;8.422;2022-12-20T13:38:51;14.38;;;8.88;;
24044;SDS011;26257;49.442;8.422;2022-12-20T13:47:16;16.70;;;7.90;;
24044;SDS011;26257;49.442;8.422;2022-12-20T13:50:26;15.60;;;8.73;;
24044;SDS011;26257;49.442;8.422;2022-12-20T13:52:55;17.02;;;9.43;;
24044;SDS011;26257;49.442;8.422;2022-12-20T13:55:39;13.90;;;8.32;;
24044;SDS011;26257;49.442;8.422;2022-12-20T13:58:14;21.77;;;12.27;;
24044;SDS011;26257;49.442;8.422;2022-12-20T14:00:50;16.95;;;9.55;;
24044;SDS011;26257;49.442;8.422;2022-12-20T14:03:21;19.20;;;10.50;;
24044;SDS011;26257;49.442;8.422;2022-12-20T14:05:50;14.23;;;8.68;;
24044;SDS011;26257;49.442;8.422;2022-12-20T14:08:21;15.70;;;9.98;;
24044;SDS011;26257;49.442;8.422;2022-12-20T14:10:52;14.40;;;8.52;;
24044;SDS011;26257;49.442;8.422;2022-12-20T14:13:18;16.52;;;8.50;;
24044;SDS011;26257;49.442;8.422;2022-12-20T14:15:46;21.65;;;12.35;;
24044;SDS011;26257;49.442;8.422;2022-12-20T14:18:17;28.67;;;16.98;;
24044;SDS011;26257;49.442;8.422;2022-12-20T14:20:46;14.40;;;8.85;;
24044;SDS011;26257;49.442;8.422;2022-12-20T14:23:24;13.73;;;7.93;;
24044;SDS011;26257;49.442;8.422;2022-12-20T14:26:02;12.27;;;7.60;;
24044;SDS011;26257;49.442;8.422;2022-12-20T14:29:02;13.52;;;8.20;;
24044;SDS011;26257;49.442;8.422;2022-12-20T14:36:44;17.90;;;9.95;;
24044;SDS011;26257;49.442;8.422;2022-12-20T14:42:02;14.88;;;8.35;;
24044;SDS011;26257;49.442;8.422;2022-12-20T14:44:38;13.52;;;7.57;;
24044;SDS011;26257;49.442;8.422;2022-12-20T14:50:02;15.05;;;8.52;;
24044;SDS011;26257;49.442;8.422;2022-12-20T14:52:42;16.00;;;8.25;;
24044;SDS011;26257;49.442;8.422;2022-12-20T14:57:45;24.25;;;13.00;;
24044;SDS011;26257;49.442;8.422;2022-12-20T15:02:50;15.70;;;8.40;;
24044;SDS011;26257;49.442;8.422;2022-12-20T15:13:30;14.07;;;8.52;;
24044;SDS011;26257;49.442;8.422;2022-12-20T15:15:57;17.23;;;8.75;;
24044;SDS011;26257;49.442;8.422;2022-12-20T15:18:24;16.48;;;8.88;;
24044;SDS011;26257;49.442;8.422;2022-12-20T15:20:55;18.70;;;8.77;;
24044;SDS011;26257;49.442;8.422;2022-12-20T15:23:30;15.17;;;8.80;;
24044;SDS011;26257;49.442;8.422;2022-12-20T15:25:57;15.55;;;9.07;;
24044;SDS011;26257;49.442;8.422;2022-12-20T15:28:24;17.73;;;9.25;;
24044;SDS011;26257;49.442;8.422;2022-12-20T15:30:51;18.67;;;10.30;;
24044;SDS011;26257;49.442;8.422;2022-12-20T15:35:52;15.10;;;8.98;;
24044;SDS011;26257;49.442;8.422;2022-12-20T15:38:19;15.45;;;8.80;;
24044;SDS011;26257;49.442;8.422;2022-12-20T15:40:48;17.70;;;8.77;;
24044;SDS011;26257;49.442;8.422;2022-12-20T15:43:17;18.23;;;9.07;;
24044;SDS011;26257;49.442;8.422;2022-12-20T15:45:45;19.60;;;11.48;;
24044;SDS011;26257;49.442;8.422;2022-12-20T15:48:15;15.18;;;8.02;;
24044;SDS011;26257;49.442;8.422;2022-12-20T15:50:43;14.77;;;8.30;;
24044;SDS011;26257;49.442;8.422;2022-12-20T15:53:14;14.98;;;8.60;;
24044;SDS011;26257;49.442;8.422;2022-12-20T15:55:41;14.30;;;8.18;;
24044;SDS011;26257;49.442;8.422;2022-12-20T15:58:08;16.60;;;8.75;;
24044;SDS011;26257;49.442;8.422;2022-12-20T16:00:36;14.88;;;8.82;;
24044;SDS011;26257;49.442;8.422;2022-12-20T16:03:07;15.80;;;8.40;;
24044;SDS011;26257;49.442;8.422;2022-12-20T16:05:41;16.27;;;8.52;;
24044;SDS011;26257;49.442;8.422;2022-12-20T16:08:06;14.13;;;8.85;;
24044;SDS011;26257;49.442;8.422;2022-12-20T16:10:32;14.38;;;8.07;;
24044;SDS011;26257;49.442;8.422;2022-12-20T16:12:57;15.68;;;8.23;;
24044;SDS011;26257;49.442;8.422;2022-12-20T16:15:23;14.27;;;8.07;;
24044;SDS011;26257;49.442;8.422;2022-12-20T16:17:49;12.55;;;7.63;;
24044;SDS011;26257;49.442;8.422;2022-12-20T16:20:15;15.02;;;7.70;;
24044;SDS011;26257;49.442;8.422;2022-12-20T16:22:41;14.73;;;8.13;;
24044;SDS011;26257;49.442;8.422;2022-12-20T16:25:10;13.95;;;7.50;;
24044;SDS011;26257;49.442;8.422;2022-12-20T16:27:47;11.65;;;7.50;;
24044;SDS011;26257;49.442;8.422;2022-12-20T16:30:13;11.82;;;7.30;;
24044;SDS011;26257;49.442;8.422;2022-12-20T16:32:39;13.95;;;7.85;;
24044;SDS011;26257;49.442;8.422;2022-12-20T16:35:05;15.32;;;9.00;;
24044;SDS011;26257;49.442;8.422;2022-12-20T16:37:30;17.15;;;8.95;;
24044;SDS011;26257;49.442;8.422;2022-12-20T16:39:56;13.23;;;7.70;;
24044;SDS011;26257;49.442;8.422;2022-12-20T16:42:21;13.82;;;7.82;;
24044;SDS011;26257;49.442;8.422;2022-12-20T16:44:50;13.43;;;7.90;;
24044;SDS011;26257;49.442;8.422;2022-12-20T16:47:16;14.82;;;8.65;;
24044;SDS011;26257;49.442;8.422;2022-12-20T16:49:42;11.60;;;7.63;;
24044;SDS011;26257;49.442;8.422;2022-12-20T16:52:12;13.93;;;7.20;;
24044;SDS011;26257;49.442;8.422;2022-12-20T16:54:41;17.95;;;8.55;;
24044;SDS011;26257;49.442;8.422;2022-12-20T16:57:07;11.40;;;6.72;;
24044;SDS011;26257;49.442;8.422;2022-12-20T16:59:34;17.75;;;8.07;;
24044;SDS011;26257;49.442;8.422;2022-12-20T17:01:59;11.55;;;7.15;;
24044;SDS011;26257;49.442;8.422;2022-12-20T17:04:25;15.65;;;7.00;;
24044;SDS011;26257;49.442;8.422;2022-12-20T17:06:51;11.32;;;7.25;;
24044;SDS011;26257;49.442;8.422;2022-12-20T17:09:17;12.85;;;7.35;;
24044;SDS011;26257;49.442;8.422;2022-12-20T17:11:43;15.15;;;8.38;;
24044;SDS011;26257;49.442;8.422;2022-12-20T17:14:11;13.20;;;7.30;;
24044;SDS011;26257;49.442;8.422;2022-12-20T17:16:37;15.85;;;7.38;;
24044;SDS011;26257;49.442;8.422;2022-12-20T17:19:04;15.50;;;8.25;;
24044;SDS011;26257;49.442;8.422;2022-12-20T17:21:33;11.40;;;6.75;;
24044;SDS011;26257;49.442;8.422;2022-12-20T17:24:01;12.38;;;6.80;;
24044;SDS011;26257;49.442;8.422;2022-12-20T17:26:28;14.07;;;6.78;;
24044;SDS011;26257;49.442;8.422;2022-12-20T17:28:55;16.45;;;7.10;;
24044;SDS011;26257;49.442;8.422;2022-12-20T17:33:54;12.80;;;6.75;;
24044;SDS011;26257;49.442;8.422;2022-12-20T17:36:21;12.65;;;7.18;;
24044;SDS011;26257;49.442;8.422;2022-12-20T17:38:47;13.95;;;7.40;;
24044;SDS011;26257;49.442;8.422;2022-12-20T17:41:25;15.07;;;8.32;;
24044;SDS011;26257;49.442;8.422;2022-12-20T17:43:54;12.15;;;6.93;;
24044;SDS011;26257;49.442;8.422;2022-12-20T17:46:21;16.63;;;8.55;;
24044;SDS011;26257;49.442;8.422;2022-12-20T17:48:47;13.25;;;7.00;;
24044;SDS011;26257;49.442;8.422;2022-12-20T17:51:13;15.30;;;7.28;;
24044;SDS011;26257;49.442;8.422;2022-12-20T17:53:47;14.98;;;7.18;;
24044;SDS011;26257;49.442;8.422;2022-12-20T17:56:15;13.70;;;8.00;;
24044;SDS011;26257;49.442;8.422;2022-12-20T17:58:45;15.60;;;7.18;;
24044;SDS011;26257;49.442;8.422;2022-12-20T18:01:15;15.25;;;8.07;;
24044;SDS011;26257;49.442;8.422;2022-12-20T18:03:43;16.02;;;9.00;;
24044;SDS011;26257;49.442;8.422;2022-12-20T18:06:09;15.73;;;8.65;;
24044;SDS011;26257;49.442;8.422;2022-12-20T18:08:34;17.58;;;9.07;;
24044;SDS011;26257;49.442;8.422;2022-12-20T18:11:00;15.02;;;9.13;;
24044;SDS011;26257;49.442;8.422;2022-12-20T18:13:25;14.75;;;8.88;;
24044;SDS011;26257;49.442;8.422;2022-12-20T18:15:51;14.48;;;8.02;;
24044;SDS011;26257;49.442;8.422;2022-12-20T18:18:16;16.40;;;7.43;;